Patriot — WDC2859 — position and weather

sailwx.info

Track history (hours):
 
Tides and Currents Weather Stations Pressure Air Temp Water Temp Dewpoint Dewpoint Depression Visibility Wind Speed Wind Dir Waves Ship Positions

Patriot

Owner: AMNAV Maritime Corporation, Oakland, CA. More information available from US FCC via Universal Licensing System and Coast Guard Vessel Documentation Center.

Last reported at 2016-May-29 12:21 UTC. Time now 2016-May-29 13:28 UTC.
Position N 37°49' W 122°19'.

Length 31 m; draft 4.6 m.

Type: Tug. MMSI: 366998680.

Date/timePositionNaut miles runAvg speedWind from/ knotsBaromVisibWave heightAir tempDewpointWater temp
2016-May-29 12:21N 37°49' W 122°19'2 2.0
2016-May-29 11:33N 37°48' W 122°19'0 0.0
2016-May-29 10:33N 37°48' W 122°19'2 0.1
2016-May-28 13:04N 37°49' W 122°19'2 3.0
2016-May-28 12:33N 37°49' W 122°20'0 0.1
2016-May-28 11:33N 37°49' W 122°20'0 0.4
2016-May-28 10:34N 37°48' W 122°21'12 8.9
2016-May-28 09:13N 37°60' W 122°25'710.1
2016-May-28 08:33N 38°03' W 122°17'6 0.6
2016-May-27 23:18N 38°03' W 122°10'2 2.9
2016-May-27 22:33N 38°03' W 122°13'4 0.5
2016-May-27 13:25N 38°02' W 122°08'10 2.9
2016-May-27 10:05N 38°03' W 121°56'4 8.1
2016-May-27 09:33N 38°02' W 121°50'14 4.1
2016-May-27 06:05N 38°02' W 122°08'0 0.0
2016-May-27 05:33N 38°02' W 122°08'0 0.0
2016-May-27 04:33N 38°02' W 122°08'0 0.0
2016-May-27 03:32N 38°02' W 122°08'0 0.0
2016-May-27 02:22N 38°02' W 122°08'11 1.1
2016-May-26 17:04N 38°02' W 122°22'5 8.9
2016-May-26 16:32N 37°58' W 122°26'5 4.8
2016-May-26 15:33N 37°55' W 122°22'0 0.2
2016-May-26 14:33N 37°55' W 122°22'6 5.2
2016-May-26 13:28N 38°00' W 122°24'12 0.7
2016-May-25 21:22N 38°02' W 122°09'4 1.7
2016-May-25 19:16N 38°04' W 122°13'4 0.5
2016-May-25 10:33N 38°02' W 122°08'4 0.3
2016-May-24 20:26N 38°04' W 122°13'1 1.4
2016-May-24 19:33N 38°03' W 122°15'0 0.0
2016-May-24 18:33N 38°03' W 122°15'0 0.0
2016-May-24 17:33N 38°03' W 122°15'0 0.0
2016-May-24 16:33N 38°03' W 122°15'0 0.0
2016-May-24 15:33N 38°03' W 122°15'0 0.0
2016-May-24 14:33N 38°03' W 122°15'1 0.5
2016-May-24 12:25N 38°04' W 122°16'2 1.6
2016-May-24 11:28N 38°03' W 122°18'5 5.8
2016-May-24 10:33N 38°01' W 122°24'8 8.1
2016-May-24 09:33N 37°53' W 122°24'6 5.5
2016-May-24 08:33N 37°49' W 122°19'0 0.0
2016-May-24 07:33N 37°49' W 122°19'0 0.0
2016-May-24 06:33N 37°49' W 122°19'0 0.0
2016-May-24 05:33N 37°49' W 122°19'0 0.0
2016-May-24 04:33N 37°49' W 122°19'0 0.0
2016-May-24 03:33N 37°49' W 122°19'0 0.0
2016-May-24 02:33N 37°49' W 122°19'0 0.0
2016-May-24 01:33N 37°49' W 122°19'0 0.0
2016-May-24 00:33N 37°49' W 122°19'0 0.0
2016-May-23 23:33N 37°49' W 122°19'0 0.0
2016-May-23 22:33N 37°49' W 122°19'0 0.0
2016-May-23 21:33N 37°49' W 122°19'0 0.0
2016-May-23 20:33N 37°49' W 122°19'1 1.5
2016-May-23 19:33N 37°49' W 122°20'2 2.4
2016-May-23 18:33N 37°48' W 122°18'0 0.2
2016-May-23 17:33N 37°48' W 122°17'5 5.2
2016-May-23 16:33N 37°51' W 122°23'5 4.6
2016-May-23 15:33N 37°55' W 122°22'1 0.8
2016-May-23 14:33N 37°54' W 122°22'3 2.8
2016-May-23 13:33N 37°55' W 122°25'1111.3
2016-May-23 12:33N 37°44' W 122°21'1412.8
2016-May-23 11:30N 37°32' W 122°12'2 1.8
2016-May-23 10:22N 37°31' W 122°13'5 6.6
2016-May-23 09:33N 37°35' W 122°15'10 9.7
2016-May-23 08:33N 37°44' W 122°21'5 5.3
2016-May-23 07:33N 37°49' W 122°19'0 0.0
2016-May-23 06:34N 37°49' W 122°19'0 0.0
2016-May-23 05:33N 37°49' W 122°19'0 0.0
2016-May-23 04:34N 37°49' W 122°19'0 0.0
2016-May-23 03:33N 37°49' W 122°19'0 0.0
2016-May-23 02:34N 37°49' W 122°19'0 0.0
2016-May-23 01:34N 37°49' W 122°19'0 0.0
2016-May-23 00:34N 37°49' W 122°19'0 0.0
2016-May-22 23:33N 37°49' W 122°19'0 0.0
2016-May-22 22:33N 37°49' W 122°19'0 0.0
2016-May-22 21:33N 37°49' W 122°19'0 0.0
2016-May-22 20:34N 37°49' W 122°19'0 0.0
2016-May-22 19:34N 37°49' W 122°19'0 0.0
2016-May-22 18:34N 37°49' W 122°19'0 0.0
2016-May-22 17:33N 37°49' W 122°19'0 0.0
2016-May-22 16:33N 37°49' W 122°19'0 0.0
2016-May-22 15:33N 37°49' W 122°19'0 0.0
2016-May-22 14:34N 37°49' W 122°19'0 0.0
2016-May-22 13:34N 37°49' W 122°19'0 0.0
2016-May-22 12:33N 37°49' W 122°19'0 0.0
2016-May-22 11:33N 37°49' W 122°19'0 0.0
2016-May-22 10:34N 37°49' W 122°19'0 0.0
2016-May-22 09:34N 37°49' W 122°19'0 0.0
2016-May-22 08:33N 37°49' W 122°19'0 0.0
2016-May-22 07:33N 37°49' W 122°19'0 0.0
2016-May-22 06:34N 37°49' W 122°19'0 0.0
2016-May-22 05:34N 37°49' W 122°19'0 0.0
2016-May-22 04:33N 37°49' W 122°19'0 0.0
2016-May-22 03:34N 37°49' W 122°19'0 0.0
2016-May-22 02:34N 37°49' W 122°19'0 0.0
2016-May-22 01:33N 37°49' W 122°19'0 0.0
2016-May-22 00:34N 37°49' W 122°19'0 0.0
2016-May-21 23:34N 37°49' W 122°19'0 0.0
2016-May-21 22:33N 37°49' W 122°19'0 0.0
2016-May-21 21:34N 37°49' W 122°19'0 0.0
2016-May-21 20:34N 37°49' W 122°19'0 0.0
2016-May-21 19:34N 37°49' W 122°19'0 0.0
2016-May-21 18:34N 37°49' W 122°19'0 0.0
2016-May-21 17:34N 37°49' W 122°19'0 0.0
2016-May-21 16:34N 37°49' W 122°19'0 0.0
2016-May-21 15:34N 37°49' W 122°19'0 0.0
2016-May-21 14:34N 37°49' W 122°19'0 0.0
2016-May-21 13:33N 37°49' W 122°19'2 1.5
2016-May-21 12:33N 37°49' W 122°20'1 0.6
2016-May-21 11:33N 37°49' W 122°20'1 1.0
2016-May-21 10:33N 37°49' W 122°19'0 0.0
2016-May-21 09:34N 37°49' W 122°19'0 0.0
2016-May-21 08:33N 37°49' W 122°19'0 0.0
2016-May-21 07:33N 37°49' W 122°19'0 0.0
2016-May-21 06:33N 37°49' W 122°19'0 0.0
2016-May-21 05:33N 37°49' W 122°19'0 0.0
2016-May-21 04:33N 37°49' W 122°19'0 0.0
2016-May-21 03:33N 37°49' W 122°19'0 0.0
2016-May-21 02:33N 37°49' W 122°19'0 0.0
2016-May-21 01:33N 37°49' W 122°19'0 0.0
2016-May-21 00:33N 37°49' W 122°19'0 0.0
2016-May-20 23:33N 37°49' W 122°19'0 0.0
2016-May-20 22:33N 37°49' W 122°19'0 0.0
2016-May-20 21:34N 37°49' W 122°19'0 0.0
2016-May-20 20:33N 37°49' W 122°19'4 4.5
2016-May-20 19:33N 37°45' W 122°20'10 9.8
2016-May-20 18:33N 37°36' W 122°16'6 5.7
2016-May-20 17:33N 37°31' W 122°13'1 0.8
2016-May-20 16:33N 37°31' W 122°12'4 4.4
2016-May-20 15:33N 37°35' W 122°15'1010.4
2016-May-20 14:33N 37°45' W 122°21'5 4.8
2016-May-20 13:33N 37°49' W 122°19'0 0.0
2016-May-20 12:34N 37°49' W 122°19'0 0.0
2016-May-20 11:33N 37°49' W 122°19'0 0.0
2016-May-20 10:33N 37°49' W 122°19'0 0.0
2016-May-20 09:34N 37°49' W 122°19'0 0.0
2016-May-20 08:33N 37°49' W 122°19'0 0.0
2016-May-20 07:34N 37°49' W 122°19'0 0.0
2016-May-20 06:34N 37°49' W 122°19'2 2.0
2016-May-20 05:33N 37°48' W 122°17'1 1.4
2016-May-20 04:33N 37°48' W 122°19'2 1.6
2016-May-20 03:34N 37°49' W 122°19'0 0.0
2016-May-20 02:33N 37°49' W 122°19'0 0.0
2016-May-20 01:34N 37°49' W 122°19'0 0.0
2016-May-20 00:33N 37°49' W 122°19'0 0.0
2016-May-19 23:34N 37°49' W 122°19'0 0.0
2016-May-19 21:33N 37°49' W 122°19'0 0.0
2016-May-19 20:33N 37°49' W 122°19'0 0.0
2016-May-19 19:33N 37°49' W 122°19'2 1.7
2016-May-19 18:33N 37°48' W 122°20'1 1.2
2016-May-19 17:33N 37°48' W 122°19'2 1.6
2016-May-19 16:33N 37°48' W 122°21'0 0.0
2016-May-19 15:33N 37°48' W 122°21'0 0.0
2016-May-19 14:33N 37°48' W 122°21'0 0.0
2016-May-19 13:33N 37°48' W 122°21'0 0.2
2016-May-19 12:33N 37°49' W 122°20'  
Track history (hours):
 
Tides and Currents Weather Stations Pressure Air Temp Water Temp Dewpoint Dewpoint Depression Visibility Wind Speed Wind Dir Waves Ship Positions

Patriot

Owner: AMNAV Maritime Corporation, Oakland, CA. More information available from US FCC via Universal Licensing System and Coast Guard Vessel Documentation Center.

Last reported at 2016-May-29 12:21 UTC. Time now 2016-May-29 13:28 UTC.
Position N 37°49' W 122°19'.

Length 31 m; draft 4.6 m.

Type: Tug. MMSI: 366998680.

Date/timePositionNaut miles runAvg speedWind from/ knotsBaromVisibWave heightAir tempDewpointWater temp
2016-May-29 12:21N 37°49' W 122°19'2 2.0
2016-May-29 11:33N 37°48' W 122°19'0 0.0
2016-May-29 10:33N 37°48' W 122°19'2 0.1
2016-May-28 13:04N 37°49' W 122°19'2 3.0
2016-May-28 12:33N 37°49' W 122°20'0 0.1
2016-May-28 11:33N 37°49' W 122°20'0 0.4
2016-May-28 10:34N 37°48' W 122°21'12 8.9
2016-May-28 09:13N 37°60' W 122°25'710.1
2016-May-28 08:33N 38°03' W 122°17'6 0.6
2016-May-27 23:18N 38°03' W 122°10'2 2.9
2016-May-27 22:33N 38°03' W 122°13'4 0.5
2016-May-27 13:25N 38°02' W 122°08'10 2.9
2016-May-27 10:05N 38°03' W 121°56'4 8.1
2016-May-27 09:33N 38°02' W 121°50'14 4.1
2016-May-27 06:05N 38°02' W 122°08'0 0.0
2016-May-27 05:33N 38°02' W 122°08'0 0.0
2016-May-27 04:33N 38°02' W 122°08'0 0.0
2016-May-27 03:32N 38°02' W 122°08'0 0.0
2016-May-27 02:22N 38°02' W 122°08'11 1.1
2016-May-26 17:04N 38°02' W 122°22'5 8.9
2016-May-26 16:32N 37°58' W 122°26'5 4.8
2016-May-26 15:33N 37°55' W 122°22'0 0.2
2016-May-26 14:33N 37°55' W 122°22'6 5.2
2016-May-26 13:28N 38°00' W 122°24'12 0.7
2016-May-25 21:22N 38°02' W 122°09'4 1.7
2016-May-25 19:16N 38°04' W 122°13'4 0.5
2016-May-25 10:33N 38°02' W 122°08'4 0.3
2016-May-24 20:26N 38°04' W 122°13'1 1.4
2016-May-24 19:33N 38°03' W 122°15'0 0.0
2016-May-24 18:33N 38°03' W 122°15'0 0.0
2016-May-24 17:33N 38°03' W 122°15'0 0.0
2016-May-24 16:33N 38°03' W 122°15'0 0.0
2016-May-24 15:33N 38°03' W 122°15'0 0.0
2016-May-24 14:33N 38°03' W 122°15'1 0.5
2016-May-24 12:25N 38°04' W 122°16'2 1.6
2016-May-24 11:28N 38°03' W 122°18'5 5.8
2016-May-24 10:33N 38°01' W 122°24'8 8.1
2016-May-24 09:33N 37°53' W 122°24'6 5.5
2016-May-24 08:33N 37°49' W 122°19'0 0.0
2016-May-24 07:33N 37°49' W 122°19'0 0.0
2016-May-24 06:33N 37°49' W 122°19'0 0.0
2016-May-24 05:33N 37°49' W 122°19'0 0.0
2016-May-24 04:33N 37°49' W 122°19'0 0.0
2016-May-24 03:33N 37°49' W 122°19'0 0.0
2016-May-24 02:33N 37°49' W 122°19'0 0.0
2016-May-24 01:33N 37°49' W 122°19'0 0.0
2016-May-24 00:33N 37°49' W 122°19'0 0.0
2016-May-23 23:33N 37°49' W 122°19'0 0.0
2016-May-23 22:33N 37°49' W 122°19'0 0.0
2016-May-23 21:33N 37°49' W 122°19'0 0.0
2016-May-23 20:33N 37°49' W 122°19'1 1.5
2016-May-23 19:33N 37°49' W 122°20'2 2.4
2016-May-23 18:33N 37°48' W 122°18'0 0.2
2016-May-23 17:33N 37°48' W 122°17'5 5.2
2016-May-23 16:33N 37°51' W 122°23'5 4.6
2016-May-23 15:33N 37°55' W 122°22'1 0.8
2016-May-23 14:33N 37°54' W 122°22'3 2.8
2016-May-23 13:33N 37°55' W 122°25'1111.3
2016-May-23 12:33N 37°44' W 122°21'1412.8
2016-May-23 11:30N 37°32' W 122°12'2 1.8
2016-May-23 10:22N 37°31' W 122°13'5 6.6
2016-May-23 09:33N 37°35' W 122°15'10 9.7
2016-May-23 08:33N 37°44' W 122°21'5 5.3
2016-May-23 07:33N 37°49' W 122°19'0 0.0
2016-May-23 06:34N 37°49' W 122°19'0 0.0
2016-May-23 05:33N 37°49' W 122°19'0 0.0
2016-May-23 04:34N 37°49' W 122°19'0 0.0
2016-May-23 03:33N 37°49' W 122°19'0 0.0
2016-May-23 02:34N 37°49' W 122°19'0 0.0
2016-May-23 01:34N 37°49' W 122°19'0 0.0
2016-May-23 00:34N 37°49' W 122°19'0 0.0
2016-May-22 23:33N 37°49' W 122°19'0 0.0
2016-May-22 22:33N 37°49' W 122°19'0 0.0
2016-May-22 21:33N 37°49' W 122°19'0 0.0
2016-May-22 20:34N 37°49' W 122°19'0 0.0
2016-May-22 19:34N 37°49' W 122°19'0 0.0
2016-May-22 18:34N 37°49' W 122°19'0 0.0
2016-May-22 17:33N 37°49' W 122°19'0 0.0
2016-May-22 16:33N 37°49' W 122°19'0 0.0
2016-May-22 15:33N 37°49' W 122°19'0 0.0
2016-May-22 14:34N 37°49' W 122°19'0 0.0
2016-May-22 13:34N 37°49' W 122°19'0 0.0
2016-May-22 12:33N 37°49' W 122°19'0 0.0
2016-May-22 11:33N 37°49' W 122°19'0 0.0
2016-May-22 10:34N 37°49' W 122°19'0 0.0
2016-May-22 09:34N 37°49' W 122°19'0 0.0
2016-May-22 08:33N 37°49' W 122°19'0 0.0
2016-May-22 07:33N 37°49' W 122°19'0 0.0
2016-May-22 06:34N 37°49' W 122°19'0 0.0
2016-May-22 05:34N 37°49' W 122°19'0 0.0
2016-May-22 04:33N 37°49' W 122°19'0 0.0
2016-May-22 03:34N 37°49' W 122°19'0 0.0
2016-May-22 02:34N 37°49' W 122°19'0 0.0
2016-May-22 01:33N 37°49' W 122°19'0 0.0
2016-May-22 00:34N 37°49' W 122°19'0 0.0
2016-May-21 23:34N 37°49' W 122°19'0 0.0
2016-May-21 22:33N 37°49' W 122°19'0 0.0
2016-May-21 21:34N 37°49' W 122°19'0 0.0
2016-May-21 20:34N 37°49' W 122°19'0 0.0
2016-May-21 19:34N 37°49' W 122°19'0 0.0
2016-May-21 18:34N 37°49' W 122°19'0 0.0
2016-May-21 17:34N 37°49' W 122°19'0 0.0
2016-May-21 16:34N 37°49' W 122°19'0 0.0
2016-May-21 15:34N 37°49' W 122°19'0 0.0
2016-May-21 14:34N 37°49' W 122°19'0 0.0
2016-May-21 13:33N 37°49' W 122°19'2 1.5
2016-May-21 12:33N 37°49' W 122°20'1 0.6
2016-May-21 11:33N 37°49' W 122°20'1 1.0
2016-May-21 10:33N 37°49' W 122°19'0 0.0
2016-May-21 09:34N 37°49' W 122°19'0 0.0
2016-May-21 08:33N 37°49' W 122°19'0 0.0
2016-May-21 07:33N 37°49' W 122°19'0 0.0
2016-May-21 06:33N 37°49' W 122°19'0 0.0
2016-May-21 05:33N 37°49' W 122°19'0 0.0
2016-May-21 04:33N 37°49' W 122°19'0 0.0
2016-May-21 03:33N 37°49' W 122°19'0 0.0
2016-May-21 02:33N 37°49' W 122°19'0 0.0
2016-May-21 01:33N 37°49' W 122°19'0 0.0
2016-May-21 00:33N 37°49' W 122°19'0 0.0
2016-May-20 23:33N 37°49' W 122°19'0 0.0
2016-May-20 22:33N 37°49' W 122°19'0 0.0
2016-May-20 21:34N 37°49' W 122°19'0 0.0
2016-May-20 20:33N 37°49' W 122°19'4 4.5
2016-May-20 19:33N 37°45' W 122°20'10 9.8
2016-May-20 18:33N 37°36' W 122°16'6 5.7
2016-May-20 17:33N 37°31' W 122°13'1 0.8
2016-May-20 16:33N 37°31' W 122°12'4 4.4
2016-May-20 15:33N 37°35' W 122°15'1010.4
2016-May-20 14:33N 37°45' W 122°21'5 4.8
2016-May-20 13:33N 37°49' W 122°19'0 0.0
2016-May-20 12:34N 37°49' W 122°19'0 0.0
2016-May-20 11:33N 37°49' W 122°19'0 0.0
2016-May-20 10:33N 37°49' W 122°19'0 0.0
2016-May-20 09:34N 37°49' W 122°19'0 0.0
2016-May-20 08:33N 37°49' W 122°19'0 0.0
2016-May-20 07:34N 37°49' W 122°19'0 0.0
2016-May-20 06:34N 37°49' W 122°19'2 2.0
2016-May-20 05:33N 37°48' W 122°17'1 1.4
2016-May-20 04:33N 37°48' W 122°19'2 1.6
2016-May-20 03:34N 37°49' W 122°19'0 0.0
2016-May-20 02:33N 37°49' W 122°19'0 0.0
2016-May-20 01:34N 37°49' W 122°19'0 0.0
2016-May-20 00:33N 37°49' W 122°19'0 0.0
2016-May-19 23:34N 37°49' W 122°19'0 0.0
2016-May-19 21:33N 37°49' W 122°19'0 0.0
2016-May-19 20:33N 37°49' W 122°19'0 0.0
2016-May-19 19:33N 37°49' W 122°19'2 1.7
2016-May-19 18:33N 37°48' W 122°20'1 1.2
2016-May-19 17:33N 37°48' W 122°19'2 1.6
2016-May-19 16:33N 37°48' W 122°21'0 0.0
2016-May-19 15:33N 37°48' W 122°21'0 0.0
2016-May-19 14:33N 37°48' W 122°21'0 0.0
2016-May-19 13:33N 37°48' W 122°21'0 0.2
2016-May-19 12:33N 37°49' W 122°20'  

Dump ship's entire track history